sensor_id;sensor_type;location;lat;lon;timestamp;P1;durP1;ratioP1;P2;durP2;ratioP2
59998;SDS011;45859;51.378;6.736;2023-03-01T00:02:03;11.40;;;5.63;;
59998;SDS011;45859;51.378;6.736;2023-03-01T00:04:29;11.37;;;5.60;;
59998;SDS011;45859;51.378;6.736;2023-03-01T00:06:55;8.23;;;5.60;;
59998;SDS011;45859;51.378;6.736;2023-03-01T00:09:21;11.90;;;5.77;;
59998;SDS011;45859;51.378;6.736;2023-03-01T00:11:47;8.30;;;5.03;;
59998;SDS011;45859;51.378;6.736;2023-03-01T00:14:13;8.57;;;4.40;;
59998;SDS011;45859;51.378;6.736;2023-03-01T00:16:41;10.17;;;4.70;;
59998;SDS011;45859;51.378;6.736;2023-03-01T00:19:08;8.03;;;5.47;;
59998;SDS011;45859;51.378;6.736;2023-03-01T00:21:39;10.70;;;5.50;;
59998;SDS011;45859;51.378;6.736;2023-03-01T00:24:05;12.90;;;6.60;;
59998;SDS011;45859;51.378;6.736;2023-03-01T00:26:30;10.70;;;4.77;;
59998;SDS011;45859;51.378;6.736;2023-03-01T00:28:57;11.53;;;6.30;;
59998;SDS011;45859;51.378;6.736;2023-03-01T00:31:24;11.23;;;5.40;;
59998;SDS011;45859;51.378;6.736;2023-03-01T00:33:52;10.87;;;6.10;;
59998;SDS011;45859;51.378;6.736;2023-03-01T00:36:22;11.43;;;5.72;;
59998;SDS011;45859;51.378;6.736;2023-03-01T00:38:49;9.30;;;5.03;;
59998;SDS011;45859;51.378;6.736;2023-03-01T00:41:16;14.93;;;4.90;;
59998;SDS011;45859;51.378;6.736;2023-03-01T00:43:43;11.93;;;5.83;;
59998;SDS011;45859;51.378;6.736;2023-03-01T00:46:11;10.03;;;5.40;;
59998;SDS011;45859;51.378;6.736;2023-03-01T00:48:38;9.27;;;4.97;;
59998;SDS011;45859;51.378;6.736;2023-03-01T00:51:07;10.33;;;5.10;;
59998;SDS011;45859;51.378;6.736;2023-03-01T00:53:41;9.63;;;5.83;;
59998;SDS011;45859;51.378;6.736;2023-03-01T00:56:07;10.10;;;4.87;;
59998;SDS011;45859;51.378;6.736;2023-03-01T00:58:34;9.33;;;5.30;;
59998;SDS011;45859;51.378;6.736;2023-03-01T01:01:00;10.63;;;5.20;;
59998;SDS011;45859;51.378;6.736;2023-03-01T01:03:32;13.53;;;5.63;;
59998;SDS011;45859;51.378;6.736;2023-03-01T01:05:58;9.60;;;6.33;;
59998;SDS011;45859;51.378;6.736;2023-03-01T01:08:23;9.40;;;5.70;;
59998;SDS011;45859;51.378;6.736;2023-03-01T01:10:49;9.17;;;4.70;;
59998;SDS011;45859;51.378;6.736;2023-03-01T01:13:15;11.07;;;6.30;;
59998;SDS011;45859;51.378;6.736;2023-03-01T01:15:41;9.13;;;5.63;;
59998;SDS011;45859;51.378;6.736;2023-03-01T01:18:06;11.90;;;5.80;;
59998;SDS011;45859;51.378;6.736;2023-03-01T01:20:32;9.80;;;5.03;;
59998;SDS011;45859;51.378;6.736;2023-03-01T01:23:00;9.67;;;5.57;;
59998;SDS011;45859;51.378;6.736;2023-03-01T01:25:26;10.57;;;6.00;;
59998;SDS011;45859;51.378;6.736;2023-03-01T01:27:51;11.27;;;5.50;;
59998;SDS011;45859;51.378;6.736;2023-03-01T01:30:17;14.80;;;6.13;;
59998;SDS011;45859;51.378;6.736;2023-03-01T01:32:43;8.70;;;5.23;;
59998;SDS011;45859;51.378;6.736;2023-03-01T01:35:08;12.43;;;5.87;;
59998;SDS011;45859;51.378;6.736;2023-03-01T01:37:34;10.07;;;5.87;;
59998;SDS011;45859;51.378;6.736;2023-03-01T01:40:00;10.37;;;5.37;;
59998;SDS011;45859;51.378;6.736;2023-03-01T01:42:29;10.47;;;5.90;;
59998;SDS011;45859;51.378;6.736;2023-03-01T01:45:31;8.23;;;5.70;;
59998;SDS011;45859;51.378;6.736;2023-03-01T01:47:56;10.65;;;6.00;;
59998;SDS011;45859;51.378;6.736;2023-03-01T01:50:25;10.97;;;5.90;;
59998;SDS011;45859;51.378;6.736;2023-03-01T01:52:52;11.87;;;6.00;;
59998;SDS011;45859;51.378;6.736;2023-03-01T01:55:21;8.57;;;5.13;;
59998;SDS011;45859;51.378;6.736;2023-03-01T01:57:53;12.23;;;6.37;;
59998;SDS011;45859;51.378;6.736;2023-03-01T02:00:25;11.93;;;5.97;;
59998;SDS011;45859;51.378;6.736;2023-03-01T02:02:55;13.03;;;5.90;;
59998;SDS011;45859;51.378;6.736;2023-03-01T02:05:35;8.80;;;4.23;;
59998;SDS011;45859;51.378;6.736;2023-03-01T02:08:05;9.80;;;5.77;;
59998;SDS011;45859;51.378;6.736;2023-03-01T02:10:33;11.83;;;6.83;;
59998;SDS011;45859;51.378;6.736;2023-03-01T02:13:00;8.57;;;6.10;;
59998;SDS011;45859;51.378;6.736;2023-03-01T02:15:27;15.03;;;6.70;;
59998;SDS011;45859;51.378;6.736;2023-03-01T02:17:58;11.10;;;5.80;;
59998;SDS011;45859;51.378;6.736;2023-03-01T02:22:55;11.30;;;6.37;;
59998;SDS011;45859;51.378;6.736;2023-03-01T02:28:05;9.87;;;5.70;;
59998;SDS011;45859;51.378;6.736;2023-03-01T02:30:43;13.43;;;6.30;;
59998;SDS011;45859;51.378;6.736;2023-03-01T02:33:30;10.80;;;6.03;;
59998;SDS011;45859;51.378;6.736;2023-03-01T02:35:57;14.67;;;5.97;;
59998;SDS011;45859;51.378;6.736;2023-03-01T02:38:25;7.73;;;5.13;;
59998;SDS011;45859;51.378;6.736;2023-03-01T02:40:51;12.33;;;6.07;;
59998;SDS011;45859;51.378;6.736;2023-03-01T02:43:19;13.80;;;5.80;;
59998;SDS011;45859;51.378;6.736;2023-03-01T02:45:48;14.53;;;7.13;;
59998;SDS011;45859;51.378;6.736;2023-03-01T02:48:15;11.03;;;5.87;;
59998;SDS011;45859;51.378;6.736;2023-03-01T02:53:23;10.63;;;5.03;;
59998;SDS011;45859;51.378;6.736;2023-03-01T02:56:04;10.37;;;5.97;;
59998;SDS011;45859;51.378;6.736;2023-03-01T02:58:30;9.43;;;5.03;;
59998;SDS011;45859;51.378;6.736;2023-03-01T03:00:55;9.47;;;5.63;;
59998;SDS011;45859;51.378;6.736;2023-03-01T03:03:22;10.60;;;5.30;;
59998;SDS011;45859;51.378;6.736;2023-03-01T03:05:47;9.77;;;5.50;;
59998;SDS011;45859;51.378;6.736;2023-03-01T03:08:13;12.50;;;6.27;;
59998;SDS011;45859;51.378;6.736;2023-03-01T03:10:48;11.60;;;7.17;;
59998;SDS011;45859;51.378;6.736;2023-03-01T03:13:14;9.33;;;4.13;;
59998;SDS011;45859;51.378;6.736;2023-03-01T03:15:41;10.03;;;4.27;;
59998;SDS011;45859;51.378;6.736;2023-03-01T03:18:08;12.97;;;5.90;;
59998;SDS011;45859;51.378;6.736;2023-03-01T03:20:36;13.43;;;6.30;;
59998;SDS011;45859;51.378;6.736;2023-03-01T03:23:02;12.43;;;6.07;;
59998;SDS011;45859;51.378;6.736;2023-03-01T03:25:28;13.73;;;6.73;;
59998;SDS011;45859;51.378;6.736;2023-03-01T03:27:54;10.10;;;5.43;;
59998;SDS011;45859;51.378;6.736;2023-03-01T03:30:25;12.38;;;6.90;;
59998;SDS011;45859;51.378;6.736;2023-03-01T03:32:52;8.90;;;4.60;;
59998;SDS011;45859;51.378;6.736;2023-03-01T03:35:18;11.07;;;6.00;;
59998;SDS011;45859;51.378;6.736;2023-03-01T03:37:46;7.60;;;3.40;;
59998;SDS011;45859;51.378;6.736;2023-03-01T03:40:27;11.33;;;6.80;;
59998;SDS011;45859;51.378;6.736;2023-03-01T03:43:03;12.73;;;5.93;;
59998;SDS011;45859;51.378;6.736;2023-03-01T03:45:30;14.63;;;6.70;;
59998;SDS011;45859;51.378;6.736;2023-03-01T03:47:58;14.97;;;6.30;;
59998;SDS011;45859;51.378;6.736;2023-03-01T03:50:24;9.17;;;5.47;;
59998;SDS011;45859;51.378;6.736;2023-03-01T03:52:49;7.53;;;4.67;;
59998;SDS011;45859;51.378;6.736;2023-03-01T03:55:15;11.30;;;6.43;;
59998;SDS011;45859;51.378;6.736;2023-03-01T03:57:45;10.30;;;5.43;;
59998;SDS011;45859;51.378;6.736;2023-03-01T04:00:19;13.30;;;6.17;;
59998;SDS011;45859;51.378;6.736;2023-03-01T04:02:47;18.03;;;7.10;;
59998;SDS011;45859;51.378;6.736;2023-03-01T04:05:15;11.63;;;6.67;;
59998;SDS011;45859;51.378;6.736;2023-03-01T04:07:41;15.50;;;6.90;;
59998;SDS011;45859;51.378;6.736;2023-03-01T04:10:08;10.10;;;6.30;;
59998;SDS011;45859;51.378;6.736;2023-03-01T04:12:36;14.33;;;7.10;;
59998;SDS011;45859;51.378;6.736;2023-03-01T04:15:05;21.87;;;6.57;;
59998;SDS011;45859;51.378;6.736;2023-03-01T04:17:41;13.17;;;6.03;;
59998;SDS011;45859;51.378;6.736;2023-03-01T04:20:09;11.85;;;6.05;;
59998;SDS011;45859;51.378;6.736;2023-03-01T04:22:37;9.27;;;6.30;;
59998;SDS011;45859;51.378;6.736;2023-03-01T04:25:04;13.20;;;7.03;;
59998;SDS011;45859;51.378;6.736;2023-03-01T04:27:32;23.77;;;6.43;;
59998;SDS011;45859;51.378;6.736;2023-03-01T04:29:58;10.83;;;5.43;;
59998;SDS011;45859;51.378;6.736;2023-03-01T04:32:24;11.43;;;5.97;;
59998;SDS011;45859;51.378;6.736;2023-03-01T04:34:49;12.87;;;5.40;;
59998;SDS011;45859;51.378;6.736;2023-03-01T04:37:15;11.60;;;5.90;;
59998;SDS011;45859;51.378;6.736;2023-03-01T04:39:41;13.10;;;5.70;;
59998;SDS011;45859;51.378;6.736;2023-03-01T04:42:11;12.63;;;6.60;;
59998;SDS011;45859;51.378;6.736;2023-03-01T04:44:37;14.03;;;6.30;;
59998;SDS011;45859;51.378;6.736;2023-03-01T04:47:02;12.60;;;6.53;;
59998;SDS011;45859;51.378;6.736;2023-03-01T04:49:28;12.00;;;5.90;;
59998;SDS011;45859;51.378;6.736;2023-03-01T04:51:53;13.27;;;6.30;;
59998;SDS011;45859;51.378;6.736;2023-03-01T04:54:19;11.80;;;5.23;;
59998;SDS011;45859;51.378;6.736;2023-03-01T04:56:45;12.27;;;5.03;;
59998;SDS011;45859;51.378;6.736;2023-03-01T04:59:11;12.13;;;5.83;;
59998;SDS011;45859;51.378;6.736;2023-03-01T05:01:37;13.03;;;6.40;;
59998;SDS011;45859;51.378;6.736;2023-03-01T05:04:03;9.70;;;5.20;;
59998;SDS011;45859;51.378;6.736;2023-03-01T05:06:30;12.33;;;6.30;;
59998;SDS011;45859;51.378;6.736;2023-03-01T05:08:56;9.00;;;5.07;;
59998;SDS011;45859;51.378;6.736;2023-03-01T05:11:22;14.37;;;6.43;;
59998;SDS011;45859;51.378;6.736;2023-03-01T05:13:50;10.00;;;5.70;;
59998;SDS011;45859;51.378;6.736;2023-03-01T05:16:19;10.27;;;4.73;;
59998;SDS011;45859;51.378;6.736;2023-03-01T05:18:45;13.90;;;5.80;;
59998;SDS011;45859;51.378;6.736;2023-03-01T05:21:12;10.17;;;6.00;;
59998;SDS011;45859;51.378;6.736;2023-03-01T05:23:40;10.00;;;6.13;;
59998;SDS011;45859;51.378;6.736;2023-03-01T05:26:06;8.37;;;4.73;;
59998;SDS011;45859;51.378;6.736;2023-03-01T05:28:33;12.07;;;6.67;;
59998;SDS011;45859;51.378;6.736;2023-03-01T05:30:59;12.00;;;6.43;;
59998;SDS011;45859;51.378;6.736;2023-03-01T05:33:26;11.27;;;6.33;;
59998;SDS011;45859;51.378;6.736;2023-03-01T05:35:52;14.00;;;6.27;;
59998;SDS011;45859;51.378;6.736;2023-03-01T05:38:18;8.43;;;5.13;;
59998;SDS011;45859;51.378;6.736;2023-03-01T05:40:46;7.87;;;4.90;;
59998;SDS011;45859;51.378;6.736;2023-03-01T05:43:13;11.63;;;5.63;;
59998;SDS011;45859;51.378;6.736;2023-03-01T05:45:40;17.33;;;6.20;;
59998;SDS011;45859;51.378;6.736;2023-03-01T05:48:08;9.67;;;5.67;;
59998;SDS011;45859;51.378;6.736;2023-03-01T05:50:35;12.87;;;6.27;;
59998;SDS011;45859;51.378;6.736;2023-03-01T05:53:09;7.38;;;4.38;;
59998;SDS011;45859;51.378;6.736;2023-03-01T05:55:37;10.90;;;6.23;;
59998;SDS011;45859;51.378;6.736;2023-03-01T05:58:04;12.40;;;4.63;;
59998;SDS011;45859;51.378;6.736;2023-03-01T06:00:35;8.10;;;4.83;;
59998;SDS011;45859;51.378;6.736;2023-03-01T06:03:01;10.50;;;5.87;;
59998;SDS011;45859;51.378;6.736;2023-03-01T06:05:28;14.03;;;6.43;;
59998;SDS011;45859;51.378;6.736;2023-03-01T06:07:54;9.83;;;6.07;;
59998;SDS011;45859;51.378;6.736;2023-03-01T06:10:23;11.63;;;5.73;;
59998;SDS011;45859;51.378;6.736;2023-03-01T06:12:49;15.50;;;7.50;;
59998;SDS011;45859;51.378;6.736;2023-03-01T06:15:15;14.77;;;7.03;;
59998;SDS011;45859;51.378;6.736;2023-03-01T06:17:43;14.50;;;5.83;;
59998;SDS011;45859;51.378;6.736;2023-03-01T06:20:14;14.60;;;6.60;;
59998;SDS011;45859;51.378;6.736;2023-03-01T06:22:44;12.83;;;6.10;;
59998;SDS011;45859;51.378;6.736;2023-03-01T06:25:11;14.33;;;5.77;;
59998;SDS011;45859;51.378;6.736;2023-03-01T06:27:38;16.97;;;6.67;;
59998;SDS011;45859;51.378;6.736;2023-03-01T06:30:05;12.60;;;6.77;;
59998;SDS011;45859;51.378;6.736;2023-03-01T06:32:32;12.67;;;6.30;;
59998;SDS011;45859;51.378;6.736;2023-03-01T06:34:57;11.33;;;5.67;;
59998;SDS011;45859;51.378;6.736;2023-03-01T06:37:23;9.00;;;4.50;;
59998;SDS011;45859;51.378;6.736;2023-03-01T06:39:50;9.73;;;5.40;;
59998;SDS011;45859;51.378;6.736;2023-03-01T06:42:15;12.77;;;6.27;;
59998;SDS011;45859;51.378;6.736;2023-03-01T06:44:41;8.70;;;5.13;;
59998;SDS011;45859;51.378;6.736;2023-03-01T06:47:07;13.30;;;6.40;;
59998;SDS011;45859;51.378;6.736;2023-03-01T06:49:33;10.30;;;5.37;;
59998;SDS011;45859;51.378;6.736;2023-03-01T06:51:58;12.20;;;6.20;;
59998;SDS011;45859;51.378;6.736;2023-03-01T06:54:24;10.60;;;6.67;;
59998;SDS011;45859;51.378;6.736;2023-03-01T06:56:50;12.47;;;6.13;;
59998;SDS011;45859;51.378;6.736;2023-03-01T06:59:16;5.23;;;3.50;;
59998;SDS011;45859;51.378;6.736;2023-03-01T07:01:42;8.33;;;5.37;;
59998;SDS011;45859;51.378;6.736;2023-03-01T07:04:09;16.27;;;6.20;;
59998;SDS011;45859;51.378;6.736;2023-03-01T07:06:35;12.87;;;6.40;;
59998;SDS011;45859;51.378;6.736;2023-03-01T07:09:00;10.13;;;5.63;;
59998;SDS011;45859;51.378;6.736;2023-03-01T07:11:26;12.00;;;6.43;;
59998;SDS011;45859;51.378;6.736;2023-03-01T07:13:52;12.03;;;6.63;;
59998;SDS011;45859;51.378;6.736;2023-03-01T07:16:18;11.27;;;5.70;;
59998;SDS011;45859;51.378;6.736;2023-03-01T07:18:45;15.77;;;6.60;;
59998;SDS011;45859;51.378;6.736;2023-03-01T07:21:12;13.43;;;6.23;;
59998;SDS011;45859;51.378;6.736;2023-03-01T07:23:39;13.80;;;7.20;;
59998;SDS011;45859;51.378;6.736;2023-03-01T07:26:05;15.40;;;7.30;;
59998;SDS011;45859;51.378;6.736;2023-03-01T07:28:30;13.17;;;7.10;;
59998;SDS011;45859;51.378;6.736;2023-03-01T07:31:01;13.20;;;6.45;;
59998;SDS011;45859;51.378;6.736;2023-03-01T07:33:28;15.93;;;7.20;;
59998;SDS011;45859;51.378;6.736;2023-03-01T07:36:00;12.97;;;7.53;;
59998;SDS011;45859;51.378;6.736;2023-03-01T07:38:29;13.87;;;7.90;;
59998;SDS011;45859;51.378;6.736;2023-03-01T07:40:59;17.47;;;7.83;;
59998;SDS011;45859;51.378;6.736;2023-03-01T07:43:29;14.60;;;7.23;;
59998;SDS011;45859;51.378;6.736;2023-03-01T07:46:02;16.83;;;7.50;;
59998;SDS011;45859;51.378;6.736;2023-03-01T07:48:28;15.20;;;7.10;;
59998;SDS011;45859;51.378;6.736;2023-03-01T07:50:59;8.57;;;4.63;;
59998;SDS011;45859;51.378;6.736;2023-03-01T07:53:25;13.60;;;6.30;;
59998;SDS011;45859;51.378;6.736;2023-03-01T07:56:04;11.27;;;6.10;;
59998;SDS011;45859;51.378;6.736;2023-03-01T07:58:35;12.77;;;6.80;;
59998;SDS011;45859;51.378;6.736;2023-03-01T08:01:03;9.73;;;5.67;;
59998;SDS011;45859;51.378;6.736;2023-03-01T08:03:30;8.03;;;4.97;;
59998;SDS011;45859;51.378;6.736;2023-03-01T08:05:58;9.90;;;5.77;;
59998;SDS011;45859;51.378;6.736;2023-03-01T08:08:24;9.10;;;5.47;;
59998;SDS011;45859;51.378;6.736;2023-03-01T08:10:50;12.13;;;5.70;;
59998;SDS011;45859;51.378;6.736;2023-03-01T08:13:16;9.73;;;5.57;;
59998;SDS011;45859;51.378;6.736;2023-03-01T08:15:47;11.47;;;6.37;;
59998;SDS011;45859;51.378;6.736;2023-03-01T08:18:13;10.93;;;6.17;;
59998;SDS011;45859;51.378;6.736;2023-03-01T08:20:40;9.50;;;5.67;;
59998;SDS011;45859;51.378;6.736;2023-03-01T08:23:05;10.13;;;5.30;;
59998;SDS011;45859;51.378;6.736;2023-03-01T08:25:31;10.43;;;5.40;;
59998;SDS011;45859;51.378;6.736;2023-03-01T08:27:57;6.83;;;3.97;;
59998;SDS011;45859;51.378;6.736;2023-03-01T08:30:22;9.00;;;5.07;;
59998;SDS011;45859;51.378;6.736;2023-03-01T08:32:49;10.17;;;4.60;;
59998;SDS011;45859;51.378;6.736;2023-03-01T08:35:15;10.83;;;5.90;;
59998;SDS011;45859;51.378;6.736;2023-03-01T08:37:41;11.00;;;5.20;;
59998;SDS011;45859;51.378;6.736;2023-03-01T08:40:07;12.77;;;9.83;;
59998;SDS011;45859;51.378;6.736;2023-03-01T08:42:35;10.73;;;9.30;;
59998;SDS011;45859;51.378;6.736;2023-03-01T08:45:01;11.00;;;9.90;;
59998;SDS011;45859;51.378;6.736;2023-03-01T08:47:30;10.40;;;9.30;;
59998;SDS011;45859;51.378;6.736;2023-03-01T08:49:58;11.33;;;9.67;;
59998;SDS011;45859;51.378;6.736;2023-03-01T08:52:24;10.90;;;9.57;;
59998;SDS011;45859;51.378;6.736;2023-03-01T08:54:50;10.30;;;9.23;;
59998;SDS011;45859;51.378;6.736;2023-03-01T08:57:16;12.07;;;9.80;;
59998;SDS011;45859;51.378;6.736;2023-03-01T08:59:42;10.50;;;9.50;;
59998;SDS011;45859;51.378;6.736;2023-03-01T09:02:10;11.10;;;9.40;;
59998;SDS011;45859;51.378;6.736;2023-03-01T09:04:38;10.82;;;9.73;;
59998;SDS011;45859;51.378;6.736;2023-03-01T09:07:04;10.20;;;9.13;;
59998;SDS011;45859;51.378;6.736;2023-03-01T09:09:30;10.33;;;9.33;;
59998;SDS011;45859;51.378;6.736;2023-03-01T09:11:56;10.80;;;9.70;;
59998;SDS011;45859;51.378;6.736;2023-03-01T09:14:22;10.80;;;9.63;;
59998;SDS011;45859;51.378;6.736;2023-03-01T09:16:47;10.00;;;9.10;;
59998;SDS011;45859;51.378;6.736;2023-03-01T09:19:13;9.93;;;9.03;;
59998;SDS011;45859;51.378;6.736;2023-03-01T09:21:39;9.80;;;8.80;;
59998;SDS011;45859;51.378;6.736;2023-03-01T09:24:05;13.53;;;9.63;;
59998;SDS011;45859;51.378;6.736;2023-03-01T09:26:40;10.03;;;9.03;;
59998;SDS011;45859;51.378;6.736;2023-03-01T09:29:06;11.43;;;9.77;;
59998;SDS011;45859;51.378;6.736;2023-03-01T09:31:31;11.10;;;9.90;;
59998;SDS011;45859;51.378;6.736;2023-03-01T09:33:57;14.47;;;9.60;;
59998;SDS011;45859;51.378;6.736;2023-03-01T09:36:23;9.87;;;5.40;;
59998;SDS011;45859;51.378;6.736;2023-03-01T09:38:50;6.13;;;4.03;;
59998;SDS011;45859;51.378;6.736;2023-03-01T09:43:51;10.23;;;5.23;;
59998;SDS011;45859;51.378;6.736;2023-03-01T09:46:22;10.70;;;5.20;;
59998;SDS011;45859;51.378;6.736;2023-03-01T09:51:39;5.27;;;2.03;;
59998;SDS011;45859;51.378;6.736;2023-03-01T09:54:05;7.07;;;4.10;;
59998;SDS011;45859;51.378;6.736;2023-03-01T09:56:34;7.60;;;4.23;;
59998;SDS011;45859;51.378;6.736;2023-03-01T10:04:26;9.73;;;4.70;;
59998;SDS011;45859;51.378;6.736;2023-03-01T10:09:39;8.97;;;4.70;;
59998;SDS011;45859;51.378;6.736;2023-03-01T10:12:11;10.07;;;4.90;;
59998;SDS011;45859;51.378;6.736;2023-03-01T10:19:55;9.93;;;4.97;;
59998;SDS011;45859;51.378;6.736;2023-03-01T10:22:50;10.10;;;5.40;;
59998;SDS011;45859;51.378;6.736;2023-03-01T10:31:03;7.47;;;3.73;;
59998;SDS011;45859;51.378;6.736;2023-03-01T10:33:30;10.23;;;4.93;;
59998;SDS011;45859;51.378;6.736;2023-03-01T10:35:58;7.33;;;3.13;;
59998;SDS011;45859;51.378;6.736;2023-03-01T10:38:23;6.90;;;4.17;;
59998;SDS011;45859;51.378;6.736;2023-03-01T10:43:18;8.93;;;3.87;;
59998;SDS011;45859;51.378;6.736;2023-03-01T10:45:45;4.90;;;3.00;;
59998;SDS011;45859;51.378;6.736;2023-03-01T10:48:15;7.20;;;3.87;;
59998;SDS011;45859;51.378;6.736;2023-03-01T10:50:48;9.27;;;4.10;;
59998;SDS011;45859;51.378;6.736;2023-03-01T10:58:28;6.40;;;3.77;;
59998;SDS011;45859;51.378;6.736;2023-03-01T11:00:59;6.43;;;2.97;;
59998;SDS011;45859;51.378;6.736;2023-03-01T11:03:31;8.83;;;4.10;;
59998;SDS011;45859;51.378;6.736;2023-03-01T11:14:01;5.63;;;3.70;;
59998;SDS011;45859;51.378;6.736;2023-03-01T11:16:38;8.73;;;3.30;;
59998;SDS011;45859;51.378;6.736;2023-03-01T11:24:11;7.97;;;3.90;;
59998;SDS011;45859;51.378;6.736;2023-03-01T11:26:40;15.13;;;4.57;;
59998;SDS011;45859;51.378;6.736;2023-03-01T11:29:16;3.07;;;1.40;;
59998;SDS011;45859;51.378;6.736;2023-03-01T11:31:51;9.80;;;4.17;;
59998;SDS011;45859;51.378;6.736;2023-03-01T11:35:02;7.93;;;4.23;;
59998;SDS011;45859;51.378;6.736;2023-03-01T11:37:57;6.90;;;3.60;;
59998;SDS011;45859;51.378;6.736;2023-03-01T11:40:29;4.63;;;2.97;;
59998;SDS011;45859;51.378;6.736;2023-03-01T11:43:15;7.07;;;3.63;;
59998;SDS011;45859;51.378;6.736;2023-03-01T11:45:55;4.47;;;2.70;;
59998;SDS011;45859;51.378;6.736;2023-03-01T11:51:31;7.20;;;3.60;;
59998;SDS011;45859;51.378;6.736;2023-03-01T11:57:07;6.50;;;3.47;;
59998;SDS011;45859;51.378;6.736;2023-03-01T12:05:43;8.90;;;4.47;;
59998;SDS011;45859;51.378;6.736;2023-03-01T12:08:35;8.57;;;4.20;;
59998;SDS011;45859;51.378;6.736;2023-03-01T12:13:53;6.00;;;3.47;;
59998;SDS011;45859;51.378;6.736;2023-03-01T12:21:22;7.73;;;3.23;;
59998;SDS011;45859;51.378;6.736;2023-03-01T12:29:28;5.67;;;3.30;;
59998;SDS011;45859;51.378;6.736;2023-03-01T12:35:21;10.70;;;3.95;;
59998;SDS011;45859;51.378;6.736;2023-03-01T12:49:10;6.93;;;3.57;;
59998;SDS011;45859;51.378;6.736;2023-03-01T12:51:57;9.17;;;3.90;;
59998;SDS011;45859;51.378;6.736;2023-03-01T12:54:27;6.43;;;2.97;;
59998;SDS011;45859;51.378;6.736;2023-03-01T12:56:56;8.07;;;3.40;;
59998;SDS011;45859;51.378;6.736;2023-03-01T12:59:30;7.70;;;3.67;;
59998;SDS011;45859;51.378;6.736;2023-03-01T13:02:06;11.17;;;4.07;;
59998;SDS011;45859;51.378;6.736;2023-03-01T13:17:50;6.33;;;3.20;;
59998;SDS011;45859;51.378;6.736;2023-03-01T13:20:29;6.13;;;3.17;;
59998;SDS011;45859;51.378;6.736;2023-03-01T13:23:03;7.53;;;3.40;;
59998;SDS011;45859;51.378;6.736;2023-03-01T13:25:35;6.03;;;3.47;;
59998;SDS011;45859;51.378;6.736;2023-03-01T13:31:56;5.77;;;3.07;;
59998;SDS011;45859;51.378;6.736;2023-03-01T13:33:57;7.53;;;3.50;;
59998;SDS011;45859;51.378;6.736;2023-03-01T13:42:25;7.33;;;3.63;;
59998;SDS011;45859;51.378;6.736;2023-03-01T13:47:14;6.77;;;3.27;;
59998;SDS011;45859;51.378;6.736;2023-03-01T13:54:54;6.87;;;3.10;;
59998;SDS011;45859;51.378;6.736;2023-03-01T13:57:22;7.70;;;3.83;;
59998;SDS011;45859;51.378;6.736;2023-03-01T13:59:53;5.80;;;3.03;;
59998;SDS011;45859;51.378;6.736;2023-03-01T14:02:19;4.43;;;2.87;;
59998;SDS011;45859;51.378;6.736;2023-03-01T14:04:46;6.80;;;3.67;;
59998;SDS011;45859;51.378;6.736;2023-03-01T14:07:22;7.03;;;3.80;;
59998;SDS011;45859;51.378;6.736;2023-03-01T14:09:55;7.37;;;3.80;;
59998;SDS011;45859;51.378;6.736;2023-03-01T14:12:43;7.30;;;4.23;;
59998;SDS011;45859;51.378;6.736;2023-03-01T14:17:52;5.67;;;3.27;;
59998;SDS011;45859;51.378;6.736;2023-03-01T14:20:40;6.80;;;4.10;;
59998;SDS011;45859;51.378;6.736;2023-03-01T14:23:15;6.60;;;3.67;;
59998;SDS011;45859;51.378;6.736;2023-03-01T14:25:48;5.90;;;2.80;;
59998;SDS011;45859;51.378;6.736;2023-03-01T14:28:17;9.23;;;4.37;;
59998;SDS011;45859;51.378;6.736;2023-03-01T14:30:49;6.57;;;3.63;;
59998;SDS011;45859;51.378;6.736;2023-03-01T14:41:09;9.07;;;4.60;;
59998;SDS011;45859;51.378;6.736;2023-03-01T14:43:43;3.70;;;2.40;;
59998;SDS011;45859;51.378;6.736;2023-03-01T14:46:21;7.67;;;3.80;;
59998;SDS011;45859;51.378;6.736;2023-03-01T14:48:49;7.37;;;3.63;;
59998;SDS011;45859;51.378;6.736;2023-03-01T14:51:16;7.13;;;3.80;;
59998;SDS011;45859;51.378;6.736;2023-03-01T14:53:42;10.57;;;4.57;;
59998;SDS011;45859;51.378;6.736;2023-03-01T14:56:14;9.47;;;4.27;;
59998;SDS011;45859;51.378;6.736;2023-03-01T14:58:44;8.40;;;4.27;;
59998;SDS011;45859;51.378;6.736;2023-03-01T15:01:15;7.87;;;4.27;;
59998;SDS011;45859;51.378;6.736;2023-03-01T15:03:43;5.60;;;3.13;;
59998;SDS011;45859;51.378;6.736;2023-03-01T15:06:14;12.07;;;5.53;;
59998;SDS011;45859;51.378;6.736;2023-03-01T15:08:45;8.63;;;3.90;;
59998;SDS011;45859;51.378;6.736;2023-03-01T15:11:22;9.23;;;4.40;;
59998;SDS011;45859;51.378;6.736;2023-03-01T15:13:52;6.90;;;2.77;;
59998;SDS011;45859;51.378;6.736;2023-03-01T15:16:20;6.30;;;2.30;;
59998;SDS011;45859;51.378;6.736;2023-03-01T15:18:52;7.30;;;3.37;;
59998;SDS011;45859;51.378;6.736;2023-03-01T15:21:33;6.45;;;3.05;;
59998;SDS011;45859;51.378;6.736;2023-03-01T15:24:06;6.10;;;3.30;;
59998;SDS011;45859;51.378;6.736;2023-03-01T15:29:19;8.80;;;4.17;;
59998;SDS011;45859;51.378;6.736;2023-03-01T15:32:00;8.27;;;4.73;;
59998;SDS011;45859;51.378;6.736;2023-03-01T15:34:29;10.60;;;4.10;;
59998;SDS011;45859;51.378;6.736;2023-03-01T15:36:58;6.20;;;3.53;;
59998;SDS011;45859;51.378;6.736;2023-03-01T15:39:33;7.00;;;4.00;;
59998;SDS011;45859;51.378;6.736;2023-03-01T15:42:02;10.37;;;4.67;;
59998;SDS011;45859;51.378;6.736;2023-03-01T15:44:30;7.87;;;3.83;;
59998;SDS011;45859;51.378;6.736;2023-03-01T15:46:58;6.07;;;2.63;;
59998;SDS011;45859;51.378;6.736;2023-03-01T15:49:35;9.27;;;3.87;;
59998;SDS011;45859;51.378;6.736;2023-03-01T15:52:06;11.10;;;4.77;;
59998;SDS011;45859;51.378;6.736;2023-03-01T15:54:38;10.10;;;3.77;;
59998;SDS011;45859;51.378;6.736;2023-03-01T15:57:07;8.90;;;3.00;;
59998;SDS011;45859;51.378;6.736;2023-03-01T15:59:38;9.97;;;3.63;;
59998;SDS011;45859;51.378;6.736;2023-03-01T16:02:08;8.67;;;3.87;;
59998;SDS011;45859;51.378;6.736;2023-03-01T16:04:37;11.50;;;3.90;;
59998;SDS011;45859;51.378;6.736;2023-03-01T16:07:03;4.83;;;3.10;;
59998;SDS011;45859;51.378;6.736;2023-03-01T16:09:29;8.27;;;4.10;;
59998;SDS011;45859;51.378;6.736;2023-03-01T16:11:54;9.87;;;4.40;;
59998;SDS011;45859;51.378;6.736;2023-03-01T16:14:20;7.30;;;3.97;;
59998;SDS011;45859;51.378;6.736;2023-03-01T16:16:46;6.97;;;3.87;;
59998;SDS011;45859;51.378;6.736;2023-03-01T16:19:16;8.88;;;3.85;;
59998;SDS011;45859;51.378;6.736;2023-03-01T16:21:42;7.37;;;3.97;;
59998;SDS011;45859;51.378;6.736;2023-03-01T16:24:08;11.47;;;3.50;;
59998;SDS011;45859;51.378;6.736;2023-03-01T16:26:35;5.00;;;3.17;;
59998;SDS011;45859;51.378;6.736;2023-03-01T16:29:02;7.10;;;3.57;;
59998;SDS011;45859;51.378;6.736;2023-03-01T16:31:28;8.53;;;4.30;;
59998;SDS011;45859;51.378;6.736;2023-03-01T16:33:54;7.70;;;4.00;;
59998;SDS011;45859;51.378;6.736;2023-03-01T16:36:21;6.80;;;3.87;;
59998;SDS011;45859;51.378;6.736;2023-03-01T16:38:48;9.63;;;4.27;;
59998;SDS011;45859;51.378;6.736;2023-03-01T16:41:16;7.80;;;4.23;;
59998;SDS011;45859;51.378;6.736;2023-03-01T16:43:43;8.17;;;3.43;;
59998;SDS011;45859;51.378;6.736;2023-03-01T16:46:15;3.60;;;2.17;;
59998;SDS011;45859;51.378;6.736;2023-03-01T16:48:42;9.87;;;4.70;;
59998;SDS011;45859;51.378;6.736;2023-03-01T16:51:08;7.17;;;3.27;;
59998;SDS011;45859;51.378;6.736;2023-03-01T16:53:35;7.40;;;3.90;;
59998;SDS011;45859;51.378;6.736;2023-03-01T16:56:02;9.00;;;4.63;;
59998;SDS011;45859;51.378;6.736;2023-03-01T16:58:29;7.60;;;4.50;;
59998;SDS011;45859;51.378;6.736;2023-03-01T17:00:55;10.40;;;4.80;;
59998;SDS011;45859;51.378;6.736;2023-03-01T17:03:24;9.97;;;4.37;;
59998;SDS011;45859;51.378;6.736;2023-03-01T17:05:51;12.77;;;4.97;;
59998;SDS011;45859;51.378;6.736;2023-03-01T17:08:16;11.07;;;3.93;;